LFLL 181530Z 33011KT 9999 FEW036 SCT070 BKN190 23/15 Q1013 NOSIG

ElémentsDécodage
LFLL Station météo située sur l'aérodrome de LYON Saint-Exupéry
181530Z émis le 18 du mois à 15h30 UTC
33011KT vent du 330°, 11 noeuds
9999 visibilité horizontale supérieure à 10 Km
FEW036 nuages rares (1/8 à 2/8) à 3600 pieds
SCT070 nuages épars (3/8 à 4/8) à 7000 pieds
BKN190 nuages morcelés (5/8 à 7/8) à 19000 pieds
23/15 température 23°C, point de rosée 15°C
 soit une humidité relative de 61%
Q1013 la pression au niveau de la mer (QNH) est de 1013 hPa
NOSIG Pas de changement significatif prévu au cours des deux heures suivant l'heure de l'observation